Folsom, NM (88419)

3:19 AM MDT on September 02, 2014 (GMT -0600)
Baca Valley | Change Station
CLOSE
Current Station
Personal Weather Station
Location: Des Moines, NM
Elevation: 6645 ft
Nearby Weather Stations

Elev 6645 ft 36.76 °N, 103.83 °W | Updated 3 minutes ago

Partly Cloudy
Partly Cloudy
58.0 °F
Feels Like 58.0 °F
N
0.0
Wind Variable Wind from WNW
Gusts 8.0 mph

Today
High -- | Low -- °F
--% Chance of Precip.
Yesterday
High -- | Low -- °F
Precip. -- in
6:26 AM 7:22 PM
Waxing Crescent, 49% visible
Pressure 29.88 in
Visibility 10.0 miles
Clouds Clear
Dew Point 46 °F
Humidity 64%
Rainfall -999.00 in
Snow Depth Not available.
UV 0 out of 12
Pollen 10.00 out of 12
Air Quality Not available.
Flu Activity Not available.
METAR KTAD 020854Z AUTO 32008KT 10SM CLR 14/06 A3013 RMK AO2 SLP116 T01440061 53006

More Conditions Fewer Conditions

Pressure 29.88 in
Visibility 10.0 miles
Clouds Clear
Dew Point 46 °F
Humidity 64%
Rainfall -999.00 in
Snow Depth Not available.
UV 0 out of 12
Pollen 10.00 out of 12
Air Quality Not available.
Flu Activity Not available.
METAR KTAD 020854Z AUTO 32008KT 10SM CLR 14/06 A3013 RMK AO2 SLP116 T01440061 53006

More Conditions Fewer Conditions

10-Day Weather Forecast

Almanac

Astronomy

Sep. 02, 2014 Rise Set
Actual Time 6:26 AM MDT 7:22 PM MDT
Civil Twilight 6:00 AM MDT 7:48 PM MDT
Nautical Twilight 5:29 AM MDT 8:19 PM MDT
Astronomical Twilight 4:56 AM MDT 8:52 PM MDT
Moon 2:03 PM MDT No Moon Set
Length of Visible Light 13h 48m
Length of Day
12h 55m
Tomorrow will be 2m 16s shorter.
Waxing Crescent, 49% of the Moon is Illuminated
Today
Waxing Crescent
Sep 2
First Quarter
Sep 8
Full
Sep 15
Last Quarter
Sep 24
New

Today's Extremes

State Highs State Lows

Community

WunderPhotos

Upload Photos

1,749,587 photos uploaded!

WunderBlogs® & News

Nearby

Snow Depth

Station Depth Elevation
North Costilla 1 in 10600 ft
Tolby 1 in 10180 ft
Red River Pass #2 0 in 9850 ft
Gallegos Peak 0 in 9800 ft
Wesner Springs 1 in 11120 ft

Earthquake Activity

City Distance Mag. Time & Date
Trinidad, Colorado 63 miles 2.7 4:20 AM MDT
2014-08-31
Minimum magnitude displayed is 2.5.

Coastal Water Temperatures

Place Temperature
No Stations Reporting

Nearby Weather Stations